Time;durP1;ratioP1;P1;durP2;ratioP2;P2;SDS_P1;SDS_P2;PMS_P1;PMS_P2;Temp;Humidity;BMP_temperature;BMP_pressure;BME280_temperature;BME280_humidity;BME280_pressure;Samples;Min_cycle;Max_cycle;Signal;HPM_P1;HPM_P2
2024/04/08 00:01:46;;;;;;;8.73;2.83;;;19.50;98.00;;;;;;5685001;21;20502;-68
2024/04/08 00:04:12;;;;;;;13.00;3.00;;;19.40;98.00;;;;;;5432014;26;20990;-68
2024/04/08 00:06:41;;;;;;;8.27;2.80;;;19.40;98.00;;;;;;5431927;26;20525;-68
2024/04/08 00:09:07;;;;;;;6.97;2.90;;;19.40;97.90;;;;;;5431864;26;20457;-68
2024/04/08 00:11:37;;;;;;;11.50;3.40;;;19.50;96.80;;;;;;5432069;26;20457;-68
2024/04/08 00:14:03;;;;;;;13.73;3.10;;;19.50;97.50;;;;;;5431702;26;20458;-66
2024/04/08 00:16:35;;;;;;;5.53;3.00;;;19.50;98.00;;;;;;5431741;26;20521;-66
2024/04/08 00:19:01;;;;;;;10.70;3.10;;;19.40;97.90;;;;;;5431627;26;20513;-67
2024/04/08 00:21:30;;;;;;;7.80;3.30;;;19.40;97.40;;;;;;5429953;26;21026;-68
2024/04/08 00:23:56;;;;;;;10.80;2.90;;;19.50;97.30;;;;;;5431905;26;20621;-68
2024/04/08 00:26:24;;;;;;;9.80;3.60;;;19.50;98.00;;;;;;5431574;26;20465;-67
2024/04/08 00:28:50;;;;;;;7.70;3.13;;;19.40;98.00;;;;;;5431356;26;20856;-67
2024/04/08 00:31:19;;;;;;;10.87;3.50;;;19.40;97.70;;;;;;5431613;26;20525;-67
2024/04/08 00:33:48;;;;;;;8.90;3.43;;;19.30;98.00;;;;;;5429729;26;20835;-68
2024/04/08 00:36:18;;;;;;;10.53;3.33;;;19.40;98.00;;;;;;5431775;26;20458;-67
2024/04/08 00:38:44;;;;;;;13.33;3.13;;;19.40;97.40;;;;;;5431843;26;21114;-67
2024/04/08 00:41:12;;;;;;;11.10;3.10;;;19.40;98.00;;;;;;5431878;26;20533;-67
2024/04/08 00:43:38;;;;;;;16.30;3.90;;;19.40;98.00;;;;;;5431283;26;20932;-68
2024/04/08 00:46:07;;;;;;;10.50;3.50;;;19.40;98.00;;;;;;5431237;26;20462;-67
2024/04/08 00:48:33;;;;;;;9.63;3.50;;;19.40;98.00;;;;;;5431419;26;20454;-68
2024/04/08 00:51:05;;;;;;;20.77;4.27;;;19.40;97.90;;;;;;5429981;26;20868;-67
2024/04/08 00:53:31;;;;;;;7.10;3.00;;;19.40;97.70;;;;;;5415858;26;20455;-68
2024/04/08 00:56:00;;;;;;;11.83;3.70;;;19.40;97.90;;;;;;5416028;26;20509;-67
2024/04/08 00:58:26;;;;;;;11.60;3.33;;;19.30;98.00;;;;;;5415970;26;20451;-67
2024/04/08 01:00:55;;;;;;;18.07;3.77;;;19.20;98.00;;;;;;5415497;26;20880;-68
2024/04/08 01:03:24;;;;;;;8.47;3.17;;;19.00;98.00;;;;;;5415659;26;20462;-68
2024/04/08 01:05:51;;;;;;;11.57;3.50;;;18.90;98.00;;;;;;5415671;26;20509;-68
2024/04/08 01:08:23;;;;;;;10.70;3.10;;;19.00;98.00;;;;;;5415361;26;20584;-67
2024/04/08 01:10:49;;;;;;;9.53;3.17;;;19.00;98.00;;;;;;5413775;26;20711;-67
2024/04/08 01:13:19;;;;;;;9.60;3.07;;;19.10;98.00;;;;;;5415535;26;20462;-68
2024/04/08 01:15:45;;;;;;;10.67;3.60;;;18.90;98.00;;;;;;5415278;26;20463;-67
2024/04/08 01:18:14;;;;;;;13.13;3.20;;;18.70;98.00;;;;;;5415359;26;20470;-67
2024/04/08 01:20:40;;;;;;;7.13;3.40;;;18.50;98.00;;;;;;5413585;26;20455;-67
2024/04/08 01:23:19;;;;;;;13.80;3.80;;;18.40;98.00;;;;;;5415340;26;20470;-67
2024/04/08 01:25:48;;;;;;;9.20;3.20;;;18.50;98.00;;;;;;5415260;26;20579;-67
2024/04/08 01:28:17;;;;;;;11.33;3.63;;;18.20;98.00;;;;;;5415168;26;20513;-67
2024/04/08 01:30:43;;;;;;;12.80;3.43;;;18.10;98.00;;;;;;5415117;26;20515;-67
2024/04/08 01:33:12;;;;;;;10.00;3.53;;;18.00;98.00;;;;;;5414960;26;20567;-67
2024/04/08 01:35:38;;;;;;;11.43;3.10;;;18.00;98.00;;;;;;5414772;26;20967;-67
2024/04/08 01:38:07;;;;;;;9.33;3.03;;;18.00;98.00;;;;;;5415495;26;20459;-68
2024/04/08 01:40:33;;;;;;;13.90;2.93;;;17.90;98.00;;;;;;5415376;26;20979;-68
2024/04/08 01:43:05;;;;;;;9.97;3.70;;;17.90;98.00;;;;;;5415413;26;20463;-68
2024/04/08 01:45:31;;;;;;;6.73;3.17;;;17.80;98.00;;;;;;5415379;26;20526;-68
2024/04/08 01:48:00;;;;;;;8.17;3.53;;;17.70;98.00;;;;;;5415501;26;20538;-67
2024/04/08 01:50:26;;;;;;;13.00;3.37;;;17.80;98.00;;;;;;5415666;26;20459;-67
2024/04/08 01:52:54;;;;;;;10.83;3.10;;;17.70;98.00;;;;;;5415538;26;20490;-68
2024/04/08 01:55:20;;;;;;;14.10;3.57;;;17.70;98.00;;;;;;5415356;26;20519;-67
2024/04/08 01:57:52;;;;;;;10.10;3.50;;;17.70;98.00;;;;;;5413530;26;21106;-68
2024/04/08 02:00:21;;;;;;;5.50;3.30;;;17.80;98.00;;;;;;5415196;26;20510;-68
2024/04/08 02:02:50;;;;;;;10.03;2.57;;;17.70;98.00;;;;;;5414479;26;20478;-67
2024/04/08 02:05:17;;;;;;;15.73;3.50;;;17.50;98.00;;;;;;5414389;26;20513;-67
2024/04/08 02:07:50;;;;;;;8.60;3.27;;;17.60;98.00;;;;;;5415210;26;20514;-67
2024/04/08 02:10:16;;;;;;;8.20;3.17;;;17.50;98.00;;;;;;5415384;26;20831;-67
2024/04/08 02:12:45;;;;;;;13.03;3.83;;;17.50;98.00;;;;;;5415145;26;20455;-67
2024/04/08 02:15:12;;;;;;;9.07;3.37;;;17.40;98.00;;;;;;5414855;26;20497;-67
2024/04/08 02:17:44;;;;;;;17.27;3.53;;;17.30;98.00;;;;;;5415033;26;20517;-67
2024/04/08 02:20:10;;;;;;;9.83;3.33;;;17.30;98.00;;;;;;5415402;26;20455;-68
2024/04/08 02:22:39;;;;;;;7.50;3.20;;;17.30;98.00;;;;;;5414946;26;20462;-67
2024/04/08 02:25:07;;;;;;;18.67;3.57;;;17.30;98.00;;;;;;5415350;26;20514;-67
2024/04/08 02:27:37;;;;;;;12.83;3.70;;;17.40;98.00;;;;;;5415391;26;20912;-67
2024/04/08 02:30:05;;;;;;;9.03;3.20;;;17.20;98.00;;;;;;5414714;26;20454;-67
2024/04/08 02:32:34;;;;;;;15.63;3.40;;;17.20;98.00;;;;;;5415431;26;20505;-67
2024/04/08 02:35:03;;;;;;;9.83;3.90;;;17.10;98.00;;;;;;5414616;26;20988;-68
2024/04/08 02:37:33;;;;;;;7.23;3.20;;;17.00;98.00;;;;;;5414783;26;20467;-67
2024/04/08 02:39:59;;;;;;;7.70;2.87;;;16.90;98.00;;;;;;5412604;26;20979;-67
2024/04/08 02:42:28;;;;;;;6.13;3.03;;;16.90;98.00;;;;;;5414230;26;20513;-67
2024/04/08 02:44:54;;;;;;;18.87;4.10;;;17.00;98.00;;;;;;5414196;26;20455;-67
2024/04/08 02:47:24;;;;;;;15.10;3.70;;;17.00;98.00;;;;;;5414959;26;20450;-67
2024/04/08 02:49:50;;;;;;;13.60;3.50;;;17.20;98.00;;;;;;5414281;26;20748;-67
2024/04/08 02:52:22;;;;;;;19.47;6.20;;;17.00;98.00;;;;;;5414557;26;20470;-67
2024/04/08 02:54:48;;;;;;;9.00;3.83;;;16.70;98.00;;;;;;5414184;26;20459;-67
2024/04/08 02:57:16;;;;;;;11.33;3.33;;;16.60;98.00;;;;;;5414641;26;20529;-67
2024/04/08 02:59:44;;;;;;;6.73;3.10;;;16.60;98.00;;;;;;5414084;26;21023;-67
2024/04/08 03:02:13;;;;;;;9.20;3.20;;;16.70;98.00;;;;;;5414321;26;20470;-67
2024/04/08 03:04:39;;;;;;;7.40;3.27;;;16.70;98.00;;;;;;5413535;26;20474;-67
2024/04/08 03:07:09;;;;;;;7.40;3.67;;;16.60;98.00;;;;;;5414308;26;20526;-67
2024/04/08 03:09:38;;;;;;;9.30;3.33;;;16.60;98.00;;;;;;5414318;26;20497;-67
2024/04/08 03:12:09;;;;;;;11.10;3.70;;;16.60;98.00;;;;;;5414265;26;21078;-67
2024/04/08 03:14:35;;;;;;;9.63;3.50;;;16.40;98.00;;;;;;5413537;26;20510;-67
2024/04/08 03:17:05;;;;;;;7.00;3.37;;;16.30;98.00;;;;;;5414194;26;20514;-68
2024/04/08 03:19:32;;;;;;;27.33;4.13;;;16.40;98.00;;;;;;5413785;26;20455;-67
2024/04/08 03:22:01;;;;;;;11.70;3.80;;;16.30;98.00;;;;;;5414017;26;20510;-68
2024/04/08 03:24:27;;;;;;;6.93;3.30;;;16.20;98.00;;;;;;5414342;26;20880;-68
2024/04/08 03:26:58;;;;;;;12.73;3.47;;;16.10;98.00;;;;;;5414000;26;20467;-67
2024/04/08 03:29:25;;;;;;;11.00;3.70;;;16.10;98.00;;;;;;5413823;26;20510;-67
2024/04/08 03:31:55;;;;;;;13.70;4.37;;;16.10;98.00;;;;;;5412087;26;20594;-67
2024/04/08 03:34:21;;;;;;;13.93;3.50;;;16.20;98.00;;;;;;5413947;26;20501;-67
2024/04/08 03:36:50;;;;;;;14.47;3.87;;;16.40;98.00;;;;;;5414162;26;20855;-66
2024/04/08 03:39:19;;;;;;;9.40;3.47;;;16.30;98.00;;;;;;5413486;26;20532;-67
2024/04/08 03:41:48;;;;;;;10.10;3.37;;;16.10;98.00;;;;;;5413675;26;20467;-67
2024/04/08 03:44:19;;;;;;;8.80;3.70;;;15.90;98.00;;;;;;5413609;26;20815;-68
2024/04/08 03:46:48;;;;;;;11.07;3.57;;;15.80;98.00;;;;;;5413753;26;20959;-68
2024/04/08 03:49:17;;;;;;;11.53;3.57;;;15.80;98.00;;;;;;5413956;26;20958;-67
2024/04/08 03:51:43;;;;;;;9.83;3.53;;;15.70;98.00;;;;;;5413438;26;20465;-67
2024/04/08 03:54:12;;;;;;;16.93;4.13;;;15.60;98.00;;;;;;5389836;26;20863;-68
2024/04/08 03:56:38;;;;;;;14.67;3.40;;;15.60;98.00;;;;;;5377387;26;20847;-67
2024/04/08 03:59:07;;;;;;;6.73;3.70;;;15.60;98.00;;;;;;5378011;26;20510;-67
2024/04/08 04:01:35;;;;;;;11.83;3.83;;;15.80;98.00;;;;;;5377824;26;20517;-66
2024/04/08 04:04:04;;;;;;;13.93;3.90;;;15.80;98.00;;;;;;5377833;26;20555;-66
2024/04/08 04:06:30;;;;;;;16.10;3.97;;;15.70;98.00;;;;;;5374666;26;20962;-67
2024/04/08 04:08:59;;;;;;;6.90;3.60;;;15.60;98.00;;;;;;5377768;26;20535;-67
2024/04/08 04:11:27;;;;;;;10.10;3.63;;;15.50;98.00;;;;;;5378105;26;20468;-68
2024/04/08 04:13:56;;;;;;;12.30;3.40;;;15.30;98.00;;;;;;5378270;26;20510;-67
2024/04/08 04:16:23;;;;;;;12.10;3.70;;;15.30;98.00;;;;;;5378008;26;20453;-68
2024/04/08 04:18:56;;;;;;;13.07;3.80;;;15.20;98.00;;;;;;5378146;26;20464;-66
2024/04/08 04:21:23;;;;;;;6.23;3.50;;;15.10;98.00;;;;;;5378134;26;20456;-67
2024/04/08 04:23:51;;;;;;;7.63;3.47;;;15.00;98.00;;;;;;5378097;26;20937;-67
2024/04/08 04:26:17;;;;;;;14.03;3.90;;;14.80;98.00;;;;;;5377865;26;20495;-66
2024/04/08 04:28:46;;;;;;;5.63;3.47;;;14.80;98.00;;;;;;5379096;26;20504;-67
2024/04/08 04:31:14;;;;;;;9.50;3.27;;;14.70;98.00;;;;;;5381149;26;20527;-67
2024/04/08 04:33:43;;;;;;;10.63;4.00;;;14.70;98.00;;;;;;5380949;26;20460;-67
2024/04/08 04:36:15;;;;;;;11.90;4.40;;;14.80;98.00;;;;;;5379436;26;20460;-67
2024/04/08 04:38:44;;;;;;;12.90;3.97;;;14.70;98.00;;;;;;5380768;26;21045;-67
2024/04/08 04:41:11;;;;;;;16.27;4.20;;;14.80;98.00;;;;;;5380760;26;20748;-67
2024/04/08 04:43:40;;;;;;;11.47;4.10;;;14.80;98.00;;;;;;5380487;26;20586;-67
2024/04/08 04:46:07;;;;;;;11.60;3.90;;;15.00;98.00;;;;;;5380889;26;20856;-67
2024/04/08 04:48:35;;;;;;;14.03;3.97;;;15.00;98.00;;;;;;5380852;26;20527;-67
2024/04/08 04:51:04;;;;;;;14.40;3.40;;;14.80;98.00;;;;;;5381213;26;20547;-66
2024/04/08 04:53:36;;;;;;;11.80;3.97;;;14.70;98.00;;;;;;5381680;26;20519;-66
2024/04/08 04:56:02;;;;;;;7.07;4.37;;;14.60;98.00;;;;;;5381625;26;20792;-66
2024/04/08 04:58:31;;;;;;;7.03;3.33;;;14.40;98.00;;;;;;5381726;26;20993;-66
2024/04/08 05:00:58;;;;;;;9.37;3.40;;;14.40;98.00;;;;;;5381641;26;21070;-66
2024/04/08 05:03:27;;;;;;;7.20;3.53;;;14.50;98.00;;;;;;5381555;26;20456;-66
2024/04/08 05:05:54;;;;;;;13.57;3.83;;;14.60;98.00;;;;;;5381353;26;20503;-67
2024/04/08 05:08:23;;;;;;;11.40;3.70;;;14.80;98.00;;;;;;5381476;26;20514;-66
2024/04/08 05:10:52;;;;;;;11.57;4.00;;;14.70;98.00;;;;;;5381357;26;20811;-66
2024/04/08 05:13:21;;;;;;;11.97;3.67;;;14.70;98.00;;;;;;5381756;26;20508;-67
2024/04/08 05:15:57;;;;;;;7.20;3.57;;;14.60;98.00;;;;;;5381397;26;20464;-66
2024/04/08 05:18:26;;;;;;;13.90;3.77;;;14.50;98.00;;;;;;5379701;26;20506;-66
2024/04/08 05:20:52;;;;;;;15.53;4.20;;;14.40;98.00;;;;;;5380425;26;20512;-67
2024/04/08 05:23:23;;;;;;;18.03;4.23;;;14.20;98.00;;;;;;5381330;26;20460;-66
2024/04/08 05:25:55;;;;;;;14.03;3.97;;;14.20;98.00;;;;;;5381488;26;20790;-67
2024/04/08 05:28:22;;;;;;;12.43;4.30;;;14.20;98.00;;;;;;5379579;26;20993;-67
2024/04/08 05:30:51;;;;;;;12.27;4.00;;;14.30;98.00;;;;;;5381266;26;20455;-66
2024/04/08 05:33:18;;;;;;;10.47;4.00;;;14.10;98.00;;;;;;5381225;26;20541;-66
2024/04/08 05:35:50;;;;;;;8.10;3.63;;;14.20;98.00;;;;;;5381172;26;20471;-66
2024/04/08 05:38:16;;;;;;;17.87;4.43;;;14.30;98.00;;;;;;5379149;26;20468;-66
2024/04/08 05:40:46;;;;;;;20.70;8.27;;;14.60;98.00;;;;;;5380987;26;20462;-67
2024/04/08 05:43:15;;;;;;;13.93;5.00;;;14.60;98.00;;;;;;5381135;26;20498;-66
2024/04/08 05:45:44;;;;;;;8.33;3.43;;;14.50;98.00;;;;;;5380970;26;20554;-66
2024/04/08 05:48:10;;;;;;;7.73;4.17;;;14.70;98.00;;;;;;5381048;26;20838;-66
2024/04/08 05:50:39;;;;;;;14.87;4.27;;;14.70;98.00;;;;;;5380756;26;20460;-67
2024/04/08 05:53:05;;;;;;;13.20;4.00;;;14.90;98.00;;;;;;5381161;26;21032;-67
2024/04/08 05:55:35;;;;;;;12.70;4.47;;;15.10;98.00;;;;;;5380916;26;20843;-66
2024/04/08 05:58:02;;;;;;;13.33;4.53;;;15.10;98.00;;;;;;5380943;26;20464;-72
2024/04/08 06:00:36;;;;;;;10.70;4.37;;;14.80;98.00;;;;;;5378755;26;20456;-72
2024/04/08 06:03:02;;;;;;;11.00;4.70;;;14.80;98.00;;;;;;5380915;26;20461;-72
2024/04/08 06:05:31;;;;;;;14.70;3.90;;;14.70;98.00;;;;;;5380878;26;20512;-73
2024/04/08 06:07:57;;;;;;;9.37;3.77;;;14.70;98.00;;;;;;5381160;26;20472;-72
2024/04/08 06:10:30;;;;;;;9.00;3.70;;;14.70;98.00;;;;;;5381068;26;20452;-73
2024/04/08 06:12:57;;;;;;;8.70;3.87;;;14.60;98.00;;;;;;5380910;26;20468;-72
2024/04/08 06:15:26;;;;;;;12.90;3.83;;;14.70;98.00;;;;;;5380740;26;20463;-71
2024/04/08 06:17:55;;;;;;;14.37;4.60;;;14.70;98.00;;;;;;5378976;26;20475;-71
2024/04/08 06:20:25;;;;;;;8.80;3.93;;;14.80;98.00;;;;;;5380447;26;21242;-71
2024/04/08 06:22:52;;;;;;;11.83;4.13;;;14.90;98.00;;;;;;5380301;26;20440;-71
2024/04/08 06:25:21;;;;;;;11.93;4.00;;;15.00;98.00;;;;;;5380578;26;20476;-71
2024/04/08 06:27:47;;;;;;;14.67;4.60;;;15.00;98.00;;;;;;5380451;26;20977;-71
2024/04/08 06:30:16;;;;;;;9.67;4.10;;;15.00;98.00;;;;;;5380384;26;20508;-71
2024/04/08 06:32:46;;;;;;;7.73;3.70;;;15.10;98.00;;;;;;5380033;26;20522;-71
2024/04/08 06:35:18;;;;;;;8.03;3.50;;;15.30;98.00;;;;;;5379584;26;20455;-71
2024/04/08 06:37:44;;;;;;;9.90;4.87;;;15.40;98.00;;;;;;5380395;26;20565;-71
2024/04/08 06:40:15;;;;;;;11.33;4.30;;;15.50;98.00;;;;;;5380114;26;20582;-71
2024/04/08 06:42:41;;;;;;;10.70;4.33;;;15.60;98.00;;;;;;5380248;26;20793;-71
2024/04/08 06:45:10;;;;;;;14.27;4.07;;;15.70;98.00;;;;;;5377974;26;20872;-71
2024/04/08 06:47:36;;;;;;;20.80;4.73;;;15.80;98.00;;;;;;5379176;26;20783;-71
2024/04/08 06:50:06;;;;;;;9.73;3.90;;;16.00;98.00;;;;;;5378301;26;20541;-71
2024/04/08 06:52:35;;;;;;;10.77;4.53;;;16.00;98.00;;;;;;5379742;26;21092;-71
2024/04/08 06:55:04;;;;;;;14.83;4.53;;;16.00;98.00;;;;;;5379549;26;21013;-71
2024/04/08 06:57:30;;;;;;;9.83;4.40;;;16.00;98.00;;;;;;5380692;26;20464;-70
2024/04/08 06:59:59;;;;;;;14.50;4.27;;;16.10;98.00;;;;;;5379786;26;20572;-70
2024/04/08 07:02:25;;;;;;;10.30;3.63;;;16.10;98.00;;;;;;5379749;26;20476;-70
2024/04/08 07:05:02;;;;;;;8.90;4.07;;;16.10;98.00;;;;;;5379550;26;20516;-71
2024/04/08 07:07:28;;;;;;;20.90;4.20;;;16.20;98.00;;;;;;5379844;26;21033;-70
2024/04/08 07:10:00;;;;;;;7.60;3.80;;;16.40;98.00;;;;;;5379751;26;20539;-70
2024/04/08 07:12:27;;;;;;;8.90;3.80;;;16.50;98.00;;;;;;5379853;26;20830;-70
2024/04/08 07:14:56;;;;;;;12.30;4.43;;;16.70;98.00;;;;;;5379415;26;20496;-70
2024/04/08 07:17:22;;;;;;;9.43;4.00;;;16.80;98.00;;;;;;5379767;26;20493;-70
2024/04/08 07:19:51;;;;;;;11.63;4.40;;;16.90;98.00;;;;;;5379534;26;20555;-71
2024/04/08 07:22:18;;;;;;;9.43;4.27;;;17.00;98.00;;;;;;5379551;26;20511;-70
2024/04/08 07:24:47;;;;;;;6.87;3.90;;;17.10;98.00;;;;;;5378033;26;21099;-70
2024/04/08 07:27:16;;;;;;;8.47;3.80;;;17.20;98.00;;;;;;5379456;26;20456;-71
2024/04/08 07:29:47;;;;;;;15.80;4.20;;;17.30;98.00;;;;;;5378916;26;20451;-71
2024/04/08 07:32:13;;;;;;;14.57;4.10;;;17.40;98.00;;;;;;5379147;26;20511;-71
2024/04/08 07:34:42;;;;;;;14.50;4.53;;;17.50;98.00;;;;;;5378338;26;21055;-71
2024/04/08 07:37:08;;;;;;;8.07;3.90;;;17.70;98.00;;;;;;5379787;26;20813;-71
2024/04/08 07:39:37;;;;;;;12.30;4.17;;;17.70;98.00;;;;;;5379110;26;20463;-71
2024/04/08 07:42:03;;;;;;;13.33;4.53;;;17.90;98.00;;;;;;5378948;26;20460;-71
2024/04/08 07:44:37;;;;;;;10.80;4.10;;;18.00;98.00;;;;;;5379356;26;20476;-71
2024/04/08 07:47:03;;;;;;;11.30;3.97;;;18.10;98.00;;;;;;5379177;26;20516;-71
2024/04/08 07:49:34;;;;;;;13.10;4.63;;;18.10;98.00;;;;;;5378019;26;20532;-71
2024/04/08 07:52:02;;;;;;;19.67;5.00;;;18.30;98.00;;;;;;5400119;26;20531;-71
2024/04/08 07:54:32;;;;;;;12.13;4.60;;;18.40;98.00;;;;;;5413291;26;20466;-71
2024/04/08 07:56:58;;;;;;;13.00;4.70;;;18.50;98.00;;;;;;5413755;26;20537;-71
2024/04/08 07:59:27;;;;;;;16.50;4.33;;;18.60;98.00;;;;;;5412448;26;20509;-71
2024/04/08 08:01:56;;;;;;;11.83;4.07;;;18.70;98.00;;;;;;5416633;26;21064;-71
2024/04/08 08:04:25;;;;;;;16.63;4.33;;;18.80;98.00;;;;;;5417939;26;20964;-71
2024/04/08 08:06:51;;;;;;;11.73;4.17;;;18.80;98.00;;;;;;5417165;26;20470;-71
2024/04/08 08:09:20;;;;;;;15.50;5.77;;;19.00;98.00;;;;;;5417824;26;20799;-71
2024/04/08 08:11:50;;;;;;;19.20;4.80;;;19.10;98.00;;;;;;5417790;26;20512;-71
2024/04/08 08:14:18;;;;;;;14.20;4.10;;;19.20;98.00;;;;;;5388492;26;20808;-71
2024/04/08 08:17:00;;;;;;;7.03;3.10;;;19.30;98.00;;;;;;5381953;26;20459;-67
2024/04/08 08:19:31;;;;;;;11.07;3.47;;;19.40;98.00;;;;;;5379232;26;20456;-70
2024/04/08 08:22:02;;;;;;;6.53;3.00;;;19.80;98.00;;;;;;5381602;26;20460;-70
2024/04/08 08:24:30;;;;;;;7.90;3.87;;;20.10;98.00;;;;;;5382080;26;20452;-70
2024/04/08 08:26:59;;;;;;;11.23;3.63;;;20.40;98.00;;;;;;5393917;26;20467;-70
2024/04/08 08:29:26;;;;;;;7.37;3.83;;;20.60;98.00;;;;;;5416772;26;20963;-69
2024/04/08 08:32:01;;;;;;;8.77;4.23;;;20.70;98.00;;;;;;5417244;26;20529;-67
2024/04/08 08:34:30;;;;;;;9.93;3.87;;;20.80;98.00;;;;;;5416984;26;21047;-68
2024/04/08 08:36:59;;;;;;;13.67;4.53;;;20.90;98.00;;;;;;5417367;26;20450;-68
2024/04/08 08:39:25;;;;;;;26.87;4.40;;;21.00;98.00;;;;;;5417087;26;20805;-68
2024/04/08 08:41:55;;;;;;;12.70;4.20;;;21.10;98.00;;;;;;5417260;26;20458;-68
2024/04/08 08:44:22;;;;;;;14.23;4.20;;;21.20;98.00;;;;;;5416626;26;20466;-68
2024/04/08 08:46:51;;;;;;;9.17;3.73;;;21.40;98.00;;;;;;5415958;26;21082;-68
2024/04/08 08:49:19;;;;;;;11.10;3.77;;;21.50;98.00;;;;;;5416893;26;20502;-68
2024/04/08 08:51:50;;;;;;;11.17;4.43;;;21.50;98.00;;;;;;5417129;26;20451;-68
2024/04/08 08:54:17;;;;;;;11.63;4.00;;;21.70;98.00;;;;;;5417026;26;20459;-68
2024/04/08 08:56:46;;;;;;;30.57;4.33;;;21.80;98.00;;;;;;5417090;26;20641;-68
2024/04/08 08:59:14;;;;;;;17.70;4.33;;;21.80;98.00;;;;;;5416319;26;20478;-69
2024/04/08 09:01:44;;;;;;;8.90;4.03;;;21.90;98.00;;;;;;5400007;26;20530;-68
2024/04/08 09:04:14;;;;;;;9.63;3.83;;;22.00;98.00;;;;;;5386787;26;20592;-68
2024/04/08 09:06:57;;;;;;;10.80;3.93;;;22.10;98.00;;;;;;5416915;26;20518;-68
2024/04/08 09:09:24;;;;;;;11.97;3.70;;;22.30;98.00;;;;;;5416216;26;21035;-70
2024/04/08 09:11:53;;;;;;;17.57;4.07;;;22.40;98.00;;;;;;5416780;26;20560;-70
2024/04/08 09:14:19;;;;;;;13.30;3.87;;;22.70;98.00;;;;;;5415360;26;20454;-70
2024/04/08 09:16:52;;;;;;;8.80;3.53;;;22.80;98.00;;;;;;5416934;26;20529;-70
2024/04/08 09:19:18;;;;;;;8.97;3.67;;;23.00;98.00;;;;;;5416868;26;20446;-70
2024/04/08 09:21:47;;;;;;;10.43;3.37;;;23.20;98.00;;;;;;5416582;26;20517;-70
2024/04/08 09:24:15;;;;;;;14.80;3.93;;;23.40;98.00;;;;;;5415273;26;20462;-70
2024/04/08 09:26:44;;;;;;;10.07;3.30;;;23.60;98.00;;;;;;5416705;26;20474;-70
2024/04/08 09:29:10;;;;;;;19.67;3.73;;;23.70;98.00;;;;;;5417003;26;20502;-69
2024/04/08 09:31:39;;;;;;;9.00;4.00;;;23.80;98.00;;;;;;5416729;26;21094;-69
2024/04/08 09:34:06;;;;;;;10.10;3.37;;;23.90;98.00;;;;;;5416485;26;20485;-69
2024/04/08 09:39:05;;;;;;;17.97;3.87;;;24.20;98.00;;;;;;5417257;26;20479;-69
2024/04/08 09:41:36;;;;;;;6.87;3.27;;;24.40;98.00;;;;;;5415910;26;20459;-70
2024/04/08 09:44:06;;;;;;;13.57;3.70;;;24.60;97.50;;;;;;5416690;26;20462;-65
2024/04/08 09:46:32;;;;;;;11.87;4.10;;;24.70;98.00;;;;;;5416709;26;20509;-68
2024/04/08 09:49:03;;;;;;;9.30;3.00;;;24.90;96.50;;;;;;5414444;26;20530;-67
2024/04/08 09:51:30;;;;;;;20.57;3.70;;;24.90;94.70;;;;;;5416731;26;20478;-69
2024/04/08 09:53:59;;;;;;;7.27;3.00;;;25.10;94.80;;;;;;5416367;26;20523;-75
2024/04/08 09:56:29;;;;;;;9.70;3.13;;;25.30;95.50;;;;;;5416469;26;20474;-72
2024/04/08 09:59:08;;;;;;;9.63;3.33;;;25.40;92.90;;;;;;5416199;26;20497;-72
2024/04/08 10:01:36;;;;;;;13.03;3.50;;;25.60;93.60;;;;;;5415995;26;20458;-73
2024/04/08 10:04:10;;;;;;;11.73;3.37;;;25.70;92.40;;;;;;5416023;26;20466;-74
2024/04/08 10:06:36;;;;;;;10.33;3.00;;;25.90;89.10;;;;;;5415357;26;20943;-72
2024/04/08 10:09:09;;;;;;;8.47;3.47;;;26.00;90.40;;;;;;5415531;26;20475;-72
2024/04/08 10:11:38;;;;;;;8.30;3.00;;;26.10;88.50;;;;;;5415406;26;21039;-73
2024/04/08 10:14:18;;;;;;;13.93;3.87;;;26.20;86.10;;;;;;5414907;26;20538;-73
2024/04/08 10:16:46;;;;;;;6.83;3.33;;;26.30;87.40;;;;;;5415411;26;20474;-72
2024/04/08 10:19:15;;;;;;;13.60;3.23;;;26.50;89.60;;;;;;5413559;26;20470;-73
2024/04/08 10:21:42;;;;;;;6.13;3.03;;;26.60;87.20;;;;;;5415560;26;20474;-73
2024/04/08 10:24:29;;;;;;;8.30;2.97;;;26.70;84.80;;;;;;5415422;26;20505;-72
2024/04/08 10:27:01;;;;;;;8.73;3.07;;;26.80;82.00;;;;;;5415694;26;20451;-72
2024/04/08 10:29:35;;;;;;;9.27;3.27;;;26.90;81.90;;;;;;5415463;26;20458;-71
2024/04/08 10:32:03;;;;;;;6.90;2.57;;;27.00;84.40;;;;;;5415766;26;20513;-72
2024/04/08 10:34:33;;;;;;;8.80;3.00;;;27.10;82.80;;;;;;5414820;26;20504;-72
2024/04/08 10:37:00;;;;;;;14.13;3.17;;;27.30;83.10;;;;;;5415527;26;20585;-72
2024/04/08 10:39:29;;;;;;;8.63;3.00;;;27.50;83.70;;;;;;5415400;26;20459;-72
2024/04/08 10:41:57;;;;;;;10.67;2.60;;;27.70;81.00;;;;;;5415331;26;20447;-72
2024/04/08 10:44:27;;;;;;;8.70;2.93;;;27.80;80.00;;;;;;5415486;26;21045;-72
2024/04/08 10:46:56;;;;;;;7.70;2.87;;;27.80;78.30;;;;;;5415645;26;20555;-72
2024/04/08 10:49:27;;;;;;;10.57;3.57;;;27.70;78.10;;;;;;5412915;26;20564;-72
2024/04/08 10:51:53;;;;;;;18.30;2.80;;;27.60;80.20;;;;;;5415439;26;20462;-72
2024/04/08 10:54:22;;;;;;;7.57;2.60;;;27.80;80.90;;;;;;5415289;26;20584;-72
2024/04/08 10:56:48;;;;;;;10.10;2.90;;;27.90;81.20;;;;;;5415441;26;20462;-72
2024/04/08 10:59:17;;;;;;;11.67;2.93;;;27.80;77.30;;;;;;5415287;26;20551;-73
2024/04/08 11:01:44;;;;;;;7.63;2.70;;;27.80;76.80;;;;;;5415101;26;20511;-73
2024/04/08 11:04:15;;;;;;;12.20;2.97;;;27.80;74.40;;;;;;5415101;26;20520;-72
2024/04/08 11:06:41;;;;;;;10.30;3.00;;;28.00;76.30;;;;;;5415149;26;20515;-73
2024/04/08 11:09:10;;;;;;;9.90;2.67;;;28.20;76.60;;;;;;5415300;26;20530;-72
2024/04/08 11:11:37;;;;;;;9.07;3.10;;;28.50;74.10;;;;;;5415190;26;20454;-72
2024/04/08 11:14:08;;;;;;;7.40;2.60;;;28.70;76.10;;;;;;5414924;26;20478;-73
2024/04/08 11:16:34;;;;;;;15.80;3.30;;;28.90;75.30;;;;;;5412533;26;20466;-72
2024/04/08 11:19:03;;;;;;;11.00;3.07;;;29.10;78.90;;;;;;5384072;26;20505;-72
2024/04/08 11:21:33;;;;;;;12.10;3.67;;;29.30;74.90;;;;;;5415146;26;20474;-72
2024/04/08 11:24:03;;;;;;;8.00;2.80;;;29.40;74.40;;;;;;5415194;26;20466;-73
2024/04/08 11:26:30;;;;;;;15.30;3.13;;;29.50;72.90;;;;;;5414966;26;20830;-72
2024/04/08 11:29:02;;;;;;;15.00;3.10;;;29.70;72.80;;;;;;5384411;26;20534;-73
2024/04/08 11:31:31;;;;;;;6.07;3.30;;;30.00;75.10;;;;;;5415129;26;20462;-73
2024/04/08 11:34:02;;;;;;;12.40;3.30;;;30.20;72.40;;;;;;5415388;26;20979;-75
2024/04/08 11:36:29;;;;;;;11.50;3.33;;;;;;;;;;5414408;26;20573;-68
2024/04/08 11:39:01;;;;;;;5.27;2.50;;;30.70;72.40;;;;;;5414758;26;20637;-78
2024/04/08 11:41:28;;;;;;;12.70;3.07;;;30.80;69.30;;;;;;5384625;26;20463;-78
2024/04/08 11:43:57;;;;;;;7.27;2.93;;;31.00;71.30;;;;;;5414941;26;20518;-76
2024/04/08 11:46:24;;;;;;;10.77;2.77;;;31.10;70.10;;;;;;5415171;26;20983;-77
2024/04/08 11:48:53;;;;;;;8.00;3.10;;;31.20;71.20;;;;;;5415481;26;20514;-77
2024/04/08 11:51:19;;;;;;;14.63;3.07;;;31.30;70.80;;;;;;5414891;26;20462;-77
2024/04/08 11:53:47;;;;;;;14.50;2.83;;;31.30;65.50;;;;;;5414173;26;20470;-77
2024/04/08 11:56:17;;;;;;;16.53;3.23;;;31.10;64.40;;;;;;5414252;26;20462;-78
2024/04/08 11:58:45;;;;;;;12.73;2.73;;;30.90;66.30;;;;;;5414460;26;20462;-76
2024/04/08 12:01:12;;;;;;;16.40;2.87;;;31.20;63.90;;;;;;5414515;26;20514;-78
2024/04/08 12:03:41;;;;;;;17.10;3.90;;;31.30;65.90;;;;;;5413385;26;20459;-77
2024/04/08 12:06:09;;;;;;;10.43;3.43;;;31.60;69.10;;;;;;5414489;26;20458;-75
2024/04/08 12:08:39;;;;;;;9.47;2.87;;;31.80;64.10;;;;;;5413968;26;20559;-76
2024/04/08 12:11:10;;;;;;;10.80;2.97;;;32.00;65.50;;;;;;5609873;21;20542;-76
2024/04/08 12:13:42;;;;;;;13.90;3.80;;;31.70;65.50;;;;;;5411463;26;20827;-76
2024/04/08 12:16:09;;;;;;;13.60;2.97;;;31.70;64.70;;;;;;5411608;26;20482;-76
2024/04/08 12:18:38;;;;;;;9.10;3.33;;;32.00;63.40;;;;;;5413945;26;20455;-76
2024/04/08 12:21:05;;;;;;;13.10;3.27;;;32.20;64.40;;;;;;5413304;26;20507;-76
2024/04/08 12:23:34;;;;;;;11.87;3.33;;;32.30;63.50;;;;;;5412220;26;20580;-76
2024/04/08 12:26:01;;;;;;;9.93;3.03;;;32.40;63.40;;;;;;5413701;26;20510;-76
2024/04/08 12:28:30;;;;;;;19.23;3.10;;;32.50;64.20;;;;;;5414133;26;20462;-76
2024/04/08 12:30:59;;;;;;;10.10;3.10;;;32.60;62.40;;;;;;5411788;26;21148;-76
2024/04/08 12:33:27;;;;;;;10.00;2.63;;;32.70;61.20;;;;;;5413642;26;20522;-77
2024/04/08 12:35:53;;;;;;;9.30;3.20;;;32.80;62.20;;;;;;5411075;26;20792;-76
2024/04/08 12:38:23;;;;;;;10.60;2.90;;;32.70;62.20;;;;;;5413628;26;20510;-76
2024/04/08 12:40:49;;;;;;;10.30;3.10;;;32.70;63.70;;;;;;5413404;26;20454;-76
2024/04/08 12:43:18;;;;;;;9.97;2.70;;;32.90;61.60;;;;;;5413426;26;20558;-76
2024/04/08 12:45:45;;;;;;;9.10;2.77;;;33.00;61.30;;;;;;5413674;26;21020;-75
2024/04/08 12:48:17;;;;;;;12.87;2.80;;;33.10;61.70;;;;;;5414677;26;21012;-76
2024/04/08 12:50:44;;;;;;;13.20;3.20;;;33.10;65.10;;;;;;5417060;26;20509;-76